createdAt,value
2018-07-17T00:01:38.653Z,1.60
2018-07-17T00:04:06.311Z,1.40
2018-07-17T00:06:33.959Z,1.30
2018-07-17T00:09:01.615Z,1.57
2018-07-17T00:11:29.231Z,1.63
2018-07-17T00:13:56.908Z,1.37
2018-07-17T00:16:24.586Z,1.67
2018-07-17T00:18:52.208Z,1.57
2018-07-17T00:21:19.899Z,1.50
2018-07-17T00:23:47.576Z,1.53
2018-07-17T00:26:15.295Z,1.50
2018-07-17T00:28:42.952Z,1.57
2018-07-17T00:31:10.716Z,1.60
2018-07-17T00:33:38.380Z,1.60
2018-07-17T00:36:06.164Z,1.90
2018-07-17T00:38:33.815Z,1.57
2018-07-17T00:41:01.487Z,1.60
2018-07-17T00:43:29.146Z,1.60
2018-07-17T00:45:56.808Z,1.47
2018-07-17T00:48:24.463Z,1.87
2018-07-17T00:50:54.393Z,1.53
2018-07-17T00:53:22.080Z,2.03
2018-07-17T00:55:50.803Z,1.90
2018-07-17T00:58:18.487Z,1.70
2018-07-17T01:00:45.672Z,1.70
2018-07-17T01:03:19.365Z,2.17
2018-07-17T01:05:52.788Z,2.60
2018-07-17T01:08:26.061Z,1.80
2018-07-17T01:10:59.292Z,1.73
2018-07-17T01:13:42.364Z,1.97
2018-07-17T01:16:10.136Z,1.87
2018-07-17T01:18:37.823Z,1.77
2018-07-17T01:21:05.711Z,2.20
2018-07-17T01:23:33.423Z,1.83
2018-07-17T01:26:01.081Z,1.97
2018-07-17T01:28:28.755Z,2.13
2018-07-17T01:30:56.396Z,1.97
2018-07-17T01:33:24.007Z,2.10
2018-07-17T01:35:51.659Z,1.93
2018-07-17T01:38:19.318Z,1.93
2018-07-17T01:40:46.975Z,2.10
2018-07-17T01:43:14.609Z,2.20
2018-07-17T01:45:42.230Z,2.20
2018-07-17T01:48:09.884Z,1.87
2018-07-17T01:50:37.559Z,2.30
2018-07-17T01:53:05.277Z,2.63
2018-07-17T01:55:32.899Z,2.30
2018-07-17T01:58:00.962Z,2.13
2018-07-17T02:00:28.663Z,2.17
2018-07-17T02:02:56.335Z,2.53
2018-07-17T02:05:23.975Z,2.73
2018-07-17T02:07:51.605Z,2.17
2018-07-17T02:10:19.251Z,2.90
2018-07-17T02:12:46.863Z,2.57
2018-07-17T02:15:14.519Z,2.40
2018-07-17T02:17:42.144Z,2.70
2018-07-17T02:20:09.799Z,2.53
2018-07-17T02:22:37.441Z,2.70
2018-07-17T02:25:05.099Z,2.23
2018-07-17T02:27:32.717Z,2.50
2018-07-17T02:30:00.346Z,2.23
2018-07-17T02:32:27.995Z,2.33
2018-07-17T02:34:55.636Z,2.33
2018-07-17T02:37:23.279Z,2.50
2018-07-17T02:39:50.924Z,2.50
2018-07-17T02:42:18.564Z,2.30
2018-07-17T02:44:46.190Z,2.20
2018-07-17T02:47:13.838Z,2.07
2018-07-17T02:49:41.511Z,2.30
2018-07-17T02:52:09.231Z,2.37
2018-07-17T02:54:36.875Z,2.30
2018-07-17T02:57:04.532Z,2.10
2018-07-17T02:59:32.161Z,2.17
2018-07-17T03:01:59.815Z,2.00
2018-07-17T03:04:27.467Z,2.40
2018-07-17T03:06:55.270Z,2.63
2018-07-17T03:09:22.810Z,2.40
2018-07-17T03:11:50.508Z,2.23
2018-07-17T03:14:18.252Z,2.60
2018-07-17T03:16:45.903Z,2.50
2018-07-17T03:19:13.700Z,2.70
2018-07-17T03:21:41.313Z,2.63
2018-07-17T03:24:08.993Z,2.40
2018-07-17T03:26:36.640Z,2.40
2018-07-17T03:29:04.311Z,2.27
2018-07-17T03:31:31.976Z,2.43
2018-07-17T03:33:59.627Z,2.07
2018-07-17T03:36:27.285Z,2.60
2018-07-17T03:38:54.875Z,2.83
2018-07-17T03:41:22.521Z,2.70
2018-07-17T03:43:50.188Z,2.23
2018-07-17T03:46:18.038Z,2.17
2018-07-17T03:48:47.263Z,2.60
2018-07-17T03:51:14.998Z,2.67
2018-07-17T03:53:42.647Z,2.83
2018-07-17T03:56:10.294Z,2.53
2018-07-17T03:58:37.898Z,2.50
2018-07-17T04:01:05.672Z,2.57
2018-07-17T04:03:33.323Z,2.80
2018-07-17T04:06:00.949Z,2.67
2018-07-17T04:08:28.605Z,2.50
2018-07-17T04:10:56.278Z,2.67
2018-07-17T04:13:23.912Z,2.40
2018-07-17T04:15:51.500Z,2.60
2018-07-17T04:18:19.187Z,2.30
2018-07-17T04:20:46.839Z,2.97
2018-07-17T04:23:14.443Z,2.43
2018-07-17T04:25:42.175Z,2.40
2018-07-17T04:28:09.811Z,2.17
2018-07-17T04:30:37.512Z,2.70
2018-07-17T04:33:05.311Z,2.20
2018-07-17T04:35:32.976Z,2.40
2018-07-17T04:38:00.594Z,2.70
2018-07-17T04:40:28.256Z,2.70
2018-07-17T04:42:55.939Z,2.80
2018-07-17T04:45:23.580Z,2.20
2018-07-17T04:47:51.202Z,2.62
2018-07-17T04:50:18.903Z,2.30
2018-07-17T04:52:46.511Z,2.60
2018-07-17T04:55:14.241Z,2.60
2018-07-17T04:57:41.893Z,2.35
2018-07-17T05:00:09.552Z,2.45
2018-07-17T05:02:37.212Z,2.12
2018-07-17T05:05:05.179Z,2.62
2018-07-17T05:07:32.824Z,2.52
2018-07-17T05:10:00.459Z,2.22
2018-07-17T05:12:28.095Z,1.98
2018-07-17T05:14:55.717Z,2.27
2018-07-17T05:17:23.373Z,2.20
2018-07-17T05:19:51.252Z,2.55
2018-07-17T05:22:18.926Z,2.40
2018-07-17T05:24:46.599Z,2.10
2018-07-17T05:27:14.247Z,2.10
2018-07-17T05:29:41.878Z,2.42
2018-07-17T05:32:10.489Z,2.40
2018-07-17T05:34:38.175Z,2.22
2018-07-17T05:37:05.965Z,2.67
2018-07-17T05:39:33.602Z,2.72
2018-07-17T05:42:01.626Z,2.85
2018-07-17T05:44:29.294Z,2.70
2018-07-17T05:46:56.951Z,2.40
2018-07-17T05:49:24.559Z,2.30
2018-07-17T05:51:52.252Z,2.60
2018-07-17T05:54:19.868Z,1.95
2018-07-17T05:56:47.509Z,2.27
2018-07-17T05:59:15.204Z,2.50
2018-07-17T06:01:42.837Z,2.35
2018-07-17T06:04:10.506Z,2.40
2018-07-17T06:06:38.127Z,2.45
2018-07-17T06:09:07.280Z,2.02
2018-07-17T06:11:34.903Z,2.52
2018-07-17T06:14:02.576Z,2.40
2018-07-17T06:16:30.234Z,2.10
2018-07-17T06:18:58.215Z,2.40
2018-07-17T06:21:25.888Z,2.52
2018-07-17T06:23:53.471Z,2.22
2018-07-17T06:26:21.154Z,2.70
2018-07-17T06:28:48.773Z,3.65
2018-07-17T06:31:16.408Z,2.58
2018-07-17T06:33:44.069Z,3.80
2018-07-17T06:36:11.771Z,3.33
2018-07-17T06:38:39.726Z,2.62
2018-07-17T06:41:07.358Z,3.65
2018-07-17T06:43:34.991Z,3.08
2018-07-17T06:46:03.281Z,1.80
2018-07-17T06:48:30.939Z,2.10
2018-07-17T06:50:58.544Z,2.40
2018-07-17T06:53:26.142Z,2.27
2018-07-17T06:55:53.764Z,2.22
2018-07-17T06:58:21.399Z,1.90
2018-07-17T07:00:49.070Z,1.92
2018-07-17T07:03:16.666Z,1.90
2018-07-17T07:05:44.300Z,2.10
2018-07-17T07:08:11.944Z,2.45
2018-07-17T07:10:39.592Z,1.90
2018-07-17T07:13:07.295Z,2.08
2018-07-17T07:15:34.907Z,1.67
2018-07-17T07:18:02.537Z,1.77
2018-07-17T07:20:30.161Z,1.87
2018-07-17T07:22:57.832Z,1.82
2018-07-17T07:25:25.471Z,1.60
2018-07-17T07:27:53.103Z,1.85
2018-07-17T07:30:20.736Z,1.70
2018-07-17T07:32:48.323Z,1.90
2018-07-17T07:35:15.956Z,1.95
2018-07-17T07:37:43.676Z,1.80
2018-07-17T07:40:11.323Z,1.65
2018-07-17T07:42:38.988Z,1.77
2018-07-17T07:45:06.631Z,1.87
2018-07-17T07:47:34.308Z,2.05
2018-07-17T07:50:01.992Z,1.90
2018-07-17T07:52:29.669Z,1.75
2018-07-17T07:54:57.300Z,1.85
2018-07-17T07:57:24.958Z,2.08
2018-07-17T07:59:52.627Z,2.12
2018-07-17T08:02:20.259Z,1.90
2018-07-17T08:04:48.066Z,2.42
2018-07-17T08:07:15.696Z,1.75
2018-07-17T08:09:43.331Z,1.65
2018-07-17T08:12:11.209Z,1.60
2018-07-17T08:14:38.897Z,2.00
2018-07-17T08:17:06.611Z,2.20
2018-07-17T08:19:34.267Z,1.60
2018-07-17T08:22:01.995Z,2.08
2018-07-17T08:24:29.611Z,5.78
2018-07-17T08:26:57.251Z,2.35
2018-07-17T08:29:24.935Z,1.60
2018-07-17T08:31:52.613Z,1.50
2018-07-17T08:34:20.266Z,1.32
2018-07-17T08:36:47.916Z,1.70
2018-07-17T08:39:15.590Z,1.70
2018-07-17T08:41:43.190Z,1.80
2018-07-17T08:44:10.804Z,1.72
2018-07-17T08:46:38.476Z,1.65
2018-07-17T08:49:06.152Z,1.80
2018-07-17T08:51:33.760Z,1.57
2018-07-17T08:54:01.446Z,1.95
2018-07-17T08:56:29.011Z,1.75
2018-07-17T08:58:56.658Z,1.90
2018-07-17T09:01:24.307Z,1.98
2018-07-17T09:03:51.979Z,2.72
2018-07-17T09:06:19.690Z,2.33
2018-07-17T09:08:47.319Z,4.92
2018-07-17T09:11:15.010Z,1.70
2018-07-17T09:13:42.626Z,1.90
2018-07-17T09:16:10.525Z,1.80
2018-07-17T09:18:38.156Z,1.50
2018-07-17T09:21:06.579Z,1.80
2018-07-17T09:23:34.369Z,1.60
2018-07-17T09:26:02.199Z,1.40
2018-07-17T09:28:30.007Z,1.40
2018-07-17T09:30:57.927Z,1.52
2018-07-17T09:33:25.936Z,1.62
2018-07-17T09:35:53.744Z,1.87
2018-07-17T09:38:21.755Z,1.80
2018-07-17T09:40:49.764Z,1.92
2018-07-17T09:43:17.661Z,1.50
2018-07-17T09:45:45.616Z,1.90
2018-07-17T09:48:13.613Z,1.80
2018-07-17T09:50:41.485Z,1.65
2018-07-17T09:53:09.534Z,1.62
2018-07-17T09:55:37.538Z,1.75
2018-07-17T09:58:05.218Z,2.02
2018-07-17T10:00:39.481Z,2.00
2018-07-17T10:03:07.996Z,2.00
2018-07-17T10:05:35.674Z,1.70
2018-07-17T10:08:03.348Z,1.50
2018-07-17T10:10:31.013Z,1.20
2018-07-17T10:12:58.628Z,1.60
2018-07-17T10:15:26.301Z,1.80
2018-07-17T10:17:53.912Z,1.77
2018-07-17T10:20:21.676Z,1.47
2018-07-17T10:22:49.284Z,1.60
2018-07-17T10:25:16.956Z,1.62
2018-07-17T10:27:44.616Z,1.42
2018-07-17T10:30:12.319Z,1.47
2018-07-17T10:32:40.056Z,1.65
2018-07-17T10:35:07.772Z,1.72
2018-07-17T10:37:35.483Z,1.60
2018-07-17T10:40:03.685Z,1.30
2018-07-17T10:42:31.318Z,1.32
2018-07-17T10:44:58.980Z,1.40
2018-07-17T10:47:26.673Z,1.35
2018-07-17T10:49:54.615Z,1.40
2018-07-17T10:52:22.892Z,1.12
2018-07-17T10:54:51.113Z,1.20
2018-07-17T10:57:19.534Z,1.50
2018-07-17T10:59:47.968Z,1.42
2018-07-17T11:02:15.923Z,1.20
2018-07-17T11:04:43.588Z,1.40
2018-07-17T11:07:12.208Z,1.40
2018-07-17T11:09:40.019Z,1.20
2018-07-17T11:12:07.769Z,1.07
2018-07-17T11:14:35.560Z,1.40
2018-07-17T11:17:03.356Z,1.02
2018-07-17T11:19:31.079Z,1.10
2018-07-17T11:21:59.646Z,1.10
2018-07-17T11:24:27.524Z,1.20
2018-07-17T11:26:55.258Z,1.52
2018-07-17T11:29:23.103Z,1.50
2018-07-17T11:31:51.004Z,1.40
2018-07-17T11:34:18.849Z,1.55
2018-07-17T11:36:46.666Z,1.72
2018-07-17T11:39:14.779Z,1.30
2018-07-17T11:41:43.132Z,1.35
2018-07-17T11:44:10.900Z,1.60
2018-07-17T11:46:38.530Z,1.25
2018-07-17T11:49:06.227Z,1.25
2018-07-17T11:51:33.898Z,1.17
2018-07-17T11:54:02.552Z,1.60
2018-07-17T11:56:30.603Z,1.90
2018-07-17T11:58:58.959Z,1.50
2018-07-17T12:01:27.691Z,1.30
2018-07-17T12:03:55.832Z,1.50
2018-07-17T12:06:23.672Z,1.40
2018-07-17T12:08:51.379Z,1.40
2018-07-17T12:11:20.124Z,1.90
2018-07-17T12:13:48.434Z,1.37
2018-07-17T12:16:22.835Z,1.50
2018-07-17T12:18:51.715Z,1.50
2018-07-17T12:21:19.677Z,1.57
2018-07-17T12:23:47.250Z,1.50
2018-07-17T12:26:14.901Z,1.50
2018-07-17T12:28:42.562Z,1.35
2018-07-17T12:31:11.520Z,1.40
2018-07-17T12:33:39.364Z,1.62
2018-07-17T12:36:07.703Z,1.70
2018-07-17T12:38:35.672Z,1.40
2018-07-17T12:41:03.383Z,1.52
2018-07-17T12:43:32.069Z,1.42
2018-07-17T12:45:59.998Z,1.40
2018-07-17T12:48:27.812Z,1.27
2018-07-17T12:50:55.452Z,1.35
2018-07-17T12:53:23.160Z,1.30
2018-07-17T12:55:51.496Z,1.50
2018-07-17T12:58:19.169Z,1.52
2018-07-17T13:00:46.873Z,1.30
2018-07-17T13:03:14.508Z,1.20
2018-07-17T13:05:43.049Z,1.60
2018-07-17T13:08:11.032Z,1.22
2018-07-17T13:10:38.661Z,1.20
2018-07-17T13:13:06.322Z,1.50
2018-07-17T13:15:34.022Z,1.30
2018-07-17T13:18:01.672Z,1.20
2018-07-17T13:20:29.387Z,1.00
2018-07-17T13:22:57.209Z,1.02
2018-07-17T13:25:24.878Z,1.05
2018-07-17T13:27:52.618Z,1.12
2018-07-17T13:30:20.247Z,1.00
2018-07-17T13:32:47.866Z,1.02
2018-07-17T13:35:15.818Z,1.32
2018-07-17T13:37:45.078Z,1.30
2018-07-17T13:40:12.764Z,1.20
2018-07-17T13:42:41.159Z,1.30
2018-07-17T13:45:08.855Z,1.17
2018-07-17T13:47:36.642Z,1.50
2018-07-17T13:50:04.570Z,1.57
2018-07-17T13:52:32.199Z,3.45
2018-07-17T13:54:59.869Z,5.53
2018-07-17T13:57:27.486Z,7.25
2018-07-17T13:59:55.304Z,4.60
2018-07-17T14:02:22.898Z,3.40
2018-07-17T14:04:50.500Z,2.67
2018-07-17T14:07:18.135Z,2.22
2018-07-17T14:09:45.731Z,1.80
2018-07-17T14:12:13.484Z,1.80
2018-07-17T14:14:41.071Z,1.70
2018-07-17T14:17:08.854Z,1.35
2018-07-17T14:19:37.297Z,1.10
2018-07-17T14:22:04.968Z,1.50
2018-07-17T14:24:32.619Z,1.20
2018-07-17T14:27:00.255Z,1.30
2018-07-17T14:29:27.906Z,1.25
2018-07-17T14:31:55.858Z,1.35
2018-07-17T14:34:23.545Z,0.90
2018-07-17T14:36:51.193Z,1.30
2018-07-17T14:39:18.884Z,1.42
2018-07-17T14:41:46.711Z,1.22
2018-07-17T14:44:14.370Z,1.22
2018-07-17T14:46:42.048Z,1.37
2018-07-17T14:49:09.850Z,1.42
2018-07-17T14:51:37.546Z,2.15
2018-07-17T14:54:05.298Z,1.80
2018-07-17T14:56:32.932Z,1.85
2018-07-17T14:59:00.650Z,1.30
2018-07-17T15:01:28.261Z,1.80
2018-07-17T15:03:55.928Z,1.77
2018-07-17T15:06:23.607Z,1.50
2018-07-17T15:08:51.171Z,1.42
2018-07-17T15:11:18.899Z,1.47
2018-07-17T15:13:46.530Z,1.52
2018-07-17T15:16:14.287Z,1.60
2018-07-17T15:18:41.956Z,1.55
2018-07-17T15:21:09.566Z,1.57
2018-07-17T15:23:37.187Z,1.80
2018-07-17T15:26:05.529Z,1.70
2018-07-17T15:28:33.151Z,1.60
2018-07-17T15:31:00.743Z,1.45
2018-07-17T15:33:28.383Z,1.37
2018-07-17T15:35:56.238Z,1.47
2018-07-17T15:38:23.912Z,1.70
2018-07-17T15:40:51.579Z,1.65
2018-07-17T15:43:19.195Z,1.27
2018-07-17T15:45:46.947Z,1.50
2018-07-17T15:48:14.528Z,1.50
2018-07-17T15:50:42.131Z,1.50
2018-07-17T15:53:09.780Z,1.52
2018-07-17T15:55:37.399Z,1.87
2018-07-17T15:58:05.054Z,1.20
2018-07-17T16:00:32.691Z,1.50
2018-07-17T16:03:00.290Z,1.60
2018-07-17T16:05:27.935Z,1.40
2018-07-17T16:07:55.539Z,1.60
2018-07-17T16:10:23.166Z,1.10
2018-07-17T16:12:50.819Z,1.32
2018-07-17T16:15:18.678Z,1.77
2018-07-17T16:17:46.288Z,1.90
2018-07-17T16:20:14.996Z,1.50
2018-07-17T16:22:42.579Z,1.95
2018-07-17T16:25:10.210Z,2.00
2018-07-17T16:27:37.952Z,1.60
2018-07-17T16:30:06.066Z,2.33
2018-07-17T16:32:33.690Z,3.22
2018-07-17T16:35:01.340Z,6.60
2018-07-17T16:37:28.965Z,7.20
2018-07-17T16:39:56.592Z,6.17
2018-07-17T16:42:24.200Z,3.98
2018-07-17T16:44:51.857Z,2.45
2018-07-17T16:47:19.506Z,2.17
2018-07-17T16:49:47.085Z,3.70
2018-07-17T16:52:14.683Z,3.77
2018-07-17T16:54:42.347Z,4.83
2018-07-17T16:57:10.001Z,4.67
2018-07-17T16:59:37.630Z,2.50
2018-07-17T17:02:05.434Z,2.33
2018-07-17T17:04:33.080Z,2.42
2018-07-17T17:07:00.691Z,1.57
2018-07-17T17:09:30.426Z,1.80
2018-07-17T17:12:00.471Z,1.73
2018-07-17T17:14:28.063Z,1.85
2018-07-17T17:16:55.677Z,1.60
2018-07-17T17:19:23.831Z,2.47
2018-07-17T17:21:51.427Z,2.12
2018-07-17T17:24:19.147Z,1.52
2018-07-17T17:26:46.703Z,1.65
2018-07-17T17:29:14.493Z,2.30
2018-07-17T17:31:42.092Z,2.35
2018-07-17T17:34:09.691Z,2.80
2018-07-17T17:36:37.380Z,3.92
2018-07-17T17:39:07.475Z,4.33
2018-07-17T17:41:35.148Z,2.60
2018-07-17T17:44:03.907Z,2.20
2018-07-17T17:46:31.511Z,1.90
2018-07-17T17:48:59.255Z,2.07
2018-07-17T17:51:26.892Z,1.90
2018-07-17T17:53:54.508Z,1.50
2018-07-17T17:56:22.121Z,1.70
2018-07-17T17:58:49.811Z,1.65
2018-07-17T18:01:17.651Z,1.60
2018-07-17T18:03:45.263Z,1.37
2018-07-17T18:06:12.872Z,1.60
2018-07-17T18:08:40.516Z,2.00
2018-07-17T18:11:08.123Z,1.60
2018-07-17T18:13:35.737Z,1.62
2018-07-17T18:16:03.643Z,1.45
2018-07-17T18:18:31.318Z,1.82
2018-07-17T18:20:59.130Z,2.00
2018-07-17T18:23:26.735Z,1.72
2018-07-17T18:25:54.361Z,1.57
2018-07-17T18:28:21.967Z,1.92
2018-07-17T18:30:49.627Z,2.25
2018-07-17T18:33:17.252Z,1.90
2018-07-17T18:35:45.581Z,2.22
2018-07-17T18:38:13.190Z,2.25
2018-07-17T18:40:40.852Z,3.35
2018-07-17T18:43:08.469Z,3.10
2018-07-17T18:45:36.274Z,2.70
2018-07-17T18:48:04.656Z,2.02
2018-07-17T18:50:32.248Z,1.80
2018-07-17T18:52:59.984Z,2.12
2018-07-17T18:55:27.675Z,1.40
2018-07-17T18:57:55.280Z,1.50
2018-07-17T19:00:22.923Z,1.57
2018-07-17T19:02:50.579Z,1.30
2018-07-17T19:05:19.472Z,1.37
2018-07-17T19:07:47.862Z,1.37
2018-07-17T19:10:17.434Z,1.30
2018-07-17T19:12:46.505Z,1.40
2018-07-17T19:15:15.055Z,1.67
2018-07-17T19:17:43.491Z,1.50
2018-07-17T19:20:11.809Z,1.30
2018-07-17T19:22:40.680Z,1.80
2018-07-17T19:25:09.540Z,1.37
2018-07-17T19:27:38.580Z,1.40
2018-07-17T19:30:08.403Z,1.50
2018-07-17T19:32:38.224Z,1.47
2018-07-17T19:35:07.092Z,1.33
2018-07-17T19:37:35.332Z,1.60
2018-07-17T19:40:03.032Z,1.50
2018-07-17T19:42:30.642Z,1.57
2018-07-17T19:44:58.224Z,1.40
2018-07-17T19:47:25.894Z,1.53
2018-07-17T19:49:53.983Z,1.70
2018-07-17T19:52:22.518Z,3.00
2018-07-17T19:54:50.159Z,3.03
2018-07-17T19:57:17.820Z,2.27
2018-07-17T19:59:45.590Z,1.70
2018-07-17T20:02:13.362Z,2.03
2018-07-17T20:04:41.353Z,1.37
2018-07-17T20:07:09.643Z,1.43
2018-07-17T20:09:38.415Z,1.53
2018-07-17T20:12:07.636Z,1.40
2018-07-17T20:14:35.982Z,1.70
2018-07-17T20:17:04.133Z,1.70
2018-07-17T20:19:32.111Z,1.30
2018-07-17T20:22:00.675Z,1.30
2018-07-17T20:24:28.583Z,1.77
2018-07-17T20:26:56.900Z,1.40
2018-07-17T20:29:24.752Z,1.40
2018-07-17T20:31:52.743Z,1.17
2018-07-17T20:34:21.018Z,1.10
2018-07-17T20:36:49.958Z,1.53
2018-07-17T20:39:18.110Z,3.13
2018-07-17T20:41:46.206Z,2.40
2018-07-17T20:44:14.165Z,1.70
2018-07-17T20:46:42.115Z,1.80
2018-07-17T20:49:10.389Z,1.37
2018-07-17T20:51:38.717Z,1.30
2018-07-17T20:54:07.360Z,1.23
2018-07-17T20:56:36.025Z,1.40
2018-07-17T20:59:05.338Z,1.40
2018-07-17T21:01:33.649Z,1.50
2018-07-17T21:04:02.236Z,1.43
2018-07-17T21:06:31.094Z,1.50
2018-07-17T21:08:59.338Z,1.50
2018-07-17T21:11:28.101Z,1.43
2018-07-17T21:13:56.867Z,1.60
2018-07-17T21:16:31.945Z,1.50
2018-07-17T21:19:00.525Z,1.33
2018-07-17T21:21:29.045Z,1.40
2018-07-17T21:23:57.164Z,1.40
2018-07-17T21:26:25.696Z,1.50
2018-07-17T21:28:54.269Z,1.40
2018-07-17T21:31:22.487Z,1.60
2018-07-17T21:33:50.450Z,1.40
2018-07-17T21:36:19.356Z,1.57
2018-07-17T21:38:47.925Z,1.47
2018-07-17T21:41:17.522Z,1.80
2018-07-17T21:43:46.331Z,1.43
2018-07-17T21:46:14.464Z,1.47
2018-07-17T21:48:43.574Z,1.70
2018-07-17T21:51:13.474Z,1.67
2018-07-17T21:53:42.045Z,1.60
2018-07-17T21:56:10.206Z,1.37
2018-07-17T21:58:38.996Z,1.83
2018-07-17T22:01:07.715Z,1.40
2018-07-17T22:03:36.259Z,1.50
2018-07-17T22:06:04.976Z,1.60
2018-07-17T22:08:33.107Z,1.60
2018-07-17T22:11:00.944Z,1.60
2018-07-17T22:13:30.701Z,1.50
2018-07-17T22:15:59.091Z,1.40
2018-07-17T22:18:26.920Z,1.50
2018-07-17T22:20:54.678Z,1.40
2018-07-17T22:23:22.954Z,1.23
2018-07-17T22:25:51.023Z,1.40
2018-07-17T22:28:19.509Z,1.63
2018-07-17T22:30:47.395Z,1.40
2018-07-17T22:33:15.254Z,1.50
2018-07-17T22:35:43.118Z,1.20
2018-07-17T22:38:10.767Z,1.50
2018-07-17T22:40:39.091Z,1.47
2018-07-17T22:43:07.119Z,1.40
2018-07-17T22:45:35.432Z,1.47
2018-07-17T22:48:03.917Z,1.47
2018-07-17T22:50:31.739Z,1.43
2018-07-17T22:52:59.237Z,1.70
2018-07-17T22:55:26.864Z,1.43
2018-07-17T22:57:54.499Z,1.33
2018-07-17T23:00:22.134Z,1.43
2018-07-17T23:02:49.641Z,1.27
2018-07-17T23:05:17.263Z,1.50
2018-07-17T23:07:44.796Z,1.83
2018-07-17T23:10:12.418Z,1.80
2018-07-17T23:12:39.930Z,1.70
2018-07-17T23:15:07.452Z,1.67
2018-07-17T23:17:35.073Z,1.60
2018-07-17T23:20:02.626Z,1.37
2018-07-17T23:22:47.263Z,1.40
2018-07-17T23:25:14.911Z,1.47
2018-07-17T23:27:42.445Z,1.70
2018-07-17T23:30:09.966Z,1.97
2018-07-17T23:32:37.535Z,1.80
2018-07-17T23:35:05.206Z,1.60
2018-07-17T23:37:32.742Z,1.90
2018-07-17T23:40:00.359Z,1.80
2018-07-17T23:42:27.899Z,1.73
2018-07-17T23:44:55.432Z,2.00
2018-07-17T23:47:22.967Z,1.47
2018-07-17T23:49:50.488Z,1.80
2018-07-17T23:52:18.172Z,1.90
2018-07-17T23:54:45.730Z,1.43
2018-07-17T23:57:13.281Z,1.60
2018-07-17T23:59:40.815Z,1.47
